createdAt,value
2018-02-09T00:02:18.031Z,102.80
2018-02-09T00:04:45.530Z,101.50
2018-02-09T00:07:13.029Z,104.10
2018-02-09T00:09:40.548Z,97.83
2018-02-09T00:12:08.056Z,96.10
2018-02-09T00:14:35.577Z,95.13
2018-02-09T00:17:03.089Z,97.57
2018-02-09T00:19:30.586Z,106.87
2018-02-09T00:21:58.090Z,94.70
2018-02-09T00:24:25.604Z,106.87
2018-02-09T00:26:53.110Z,101.57
2018-02-09T00:29:20.631Z,108.60
2018-02-09T00:31:48.147Z,106.53
2018-02-09T00:34:15.695Z,102.27
2018-02-09T00:36:43.971Z,105.57
2018-02-09T00:39:11.494Z,103.00
2018-02-09T00:41:39.013Z,104.93
2018-02-09T00:44:06.561Z,107.83
2018-02-09T00:46:34.101Z,103.60
2018-02-09T00:49:01.658Z,106.63
2018-02-09T00:51:29.178Z,102.93
2018-02-09T00:53:56.710Z,109.23
2018-02-09T00:56:24.230Z,98.77
2018-02-09T00:58:51.738Z,108.93
2018-02-09T01:01:19.268Z,105.97
2018-02-09T01:03:46.784Z,99.43
2018-02-09T01:06:15.070Z,106.73
2018-02-09T01:08:43.356Z,106.30
2018-02-09T01:11:10.861Z,107.97
2018-02-09T01:13:38.372Z,106.80
2018-02-09T01:16:05.922Z,102.80
2018-02-09T01:18:34.194Z,106.80
2018-02-09T01:21:02.477Z,113.43
2018-02-09T01:23:30.013Z,108.87
2018-02-09T01:25:57.520Z,107.10
2018-02-09T01:28:25.018Z,111.37
2018-02-09T01:30:52.548Z,112.73
2018-02-09T01:33:20.046Z,102.67
2018-02-09T01:35:47.554Z,106.97
2018-02-09T01:38:15.083Z,107.40
2018-02-09T01:40:43.359Z,106.40
2018-02-09T01:43:11.648Z,114.47
2018-02-09T01:45:39.176Z,104.33
2018-02-09T01:48:06.709Z,111.10
2018-02-09T01:50:34.208Z,107.80
2018-02-09T01:53:02.486Z,112.27
2018-02-09T01:55:30.772Z,103.90
2018-02-09T01:57:58.280Z,111.80
2018-02-09T02:00:25.813Z,107.20
2018-02-09T02:02:53.318Z,111.50
2018-02-09T02:05:20.836Z,110.97
2018-02-09T02:07:48.360Z,111.30
2018-02-09T02:10:16.630Z,109.33
2018-02-09T02:12:44.907Z,109.70
2018-02-09T02:15:12.424Z,112.33
2018-02-09T02:17:39.928Z,103.00
2018-02-09T02:20:07.449Z,106.33
2018-02-09T02:22:34.954Z,121.83
2018-02-09T02:25:02.475Z,110.40
2018-02-09T02:27:29.996Z,113.10
2018-02-09T02:29:57.517Z,108.87
2018-02-09T02:32:25.788Z,113.63
2018-02-09T02:34:53.292Z,110.07
2018-02-09T02:37:20.797Z,112.50
2018-02-09T02:39:48.304Z,110.20
2018-02-09T02:42:15.815Z,115.53
2018-02-09T02:44:43.336Z,124.20
2018-02-09T02:47:10.843Z,113.20
2018-02-09T02:49:39.129Z,109.97
2018-02-09T02:52:07.409Z,116.27
2018-02-09T02:54:34.934Z,113.57
2018-02-09T02:57:02.444Z,117.57
2018-02-09T02:59:29.972Z,123.27
2018-02-09T03:01:58.241Z,119.43
2018-02-09T03:04:26.528Z,119.37
2018-02-09T03:06:54.811Z,116.57
2018-02-09T03:09:22.328Z,116.90
2018-02-09T03:11:49.846Z,112.87
2018-02-09T03:14:17.358Z,114.30
2018-02-09T03:16:44.875Z,113.50
2018-02-09T03:19:12.388Z,116.63
2018-02-09T03:21:39.914Z,111.33
2018-02-09T03:24:07.422Z,111.87
2018-02-09T03:26:34.944Z,118.63
2018-02-09T03:29:02.473Z,120.40
2018-02-09T03:31:29.977Z,121.07
2018-02-09T03:33:57.488Z,119.23
2018-02-09T03:36:25.012Z,119.23
2018-02-09T03:38:52.515Z,122.50
2018-02-09T03:41:20.035Z,119.47
2018-02-09T03:43:48.322Z,111.90
2018-02-09T03:46:15.834Z,115.90
2018-02-09T03:48:43.358Z,118.53
2018-02-09T03:51:10.882Z,108.97
2018-02-09T03:53:39.171Z,116.63
2018-02-09T03:56:06.668Z,120.80
2018-02-09T03:58:34.192Z,124.27
2018-02-09T04:01:01.712Z,117.40
2018-02-09T04:03:29.234Z,115.27
2018-02-09T04:05:57.528Z,109.70
2018-02-09T04:08:25.033Z,125.50
2018-02-09T04:10:52.555Z,121.10
2018-02-09T04:13:20.119Z,121.17
2018-02-09T04:15:47.628Z,121.93
2018-02-09T04:18:15.140Z,120.00
2018-02-09T04:20:42.650Z,120.83
2018-02-09T04:23:10.152Z,111.73
2018-02-09T04:25:37.660Z,118.77
2018-02-09T04:28:05.180Z,115.83
2018-02-09T04:30:32.690Z,120.70
2018-02-09T04:33:00.200Z,113.50
2018-02-09T04:35:27.710Z,118.67
2018-02-09T04:37:55.224Z,112.57
2018-02-09T04:40:23.513Z,115.37
2018-02-09T04:42:51.787Z,109.60
2018-02-09T04:45:20.052Z,111.77
2018-02-09T04:47:48.408Z,118.80
2018-02-09T04:50:15.937Z,118.80
2018-02-09T04:52:43.432Z,114.13
2018-02-09T04:55:10.947Z,120.37
2018-02-09T04:57:38.466Z,112.93
2018-02-09T05:00:05.972Z,113.73
2018-02-09T05:02:33.493Z,114.90
2018-02-09T05:05:01.017Z,113.90
2018-02-09T05:07:28.525Z,117.13
2018-02-09T05:09:56.045Z,111.70
2018-02-09T05:12:23.562Z,107.73
2018-02-09T05:14:51.070Z,107.17
2018-02-09T05:17:19.340Z,111.27
2018-02-09T05:19:46.878Z,100.80
2018-02-09T05:22:14.378Z,111.50
2018-02-09T05:24:42.652Z,108.40
2018-02-09T05:27:10.936Z,105.73
2018-02-09T05:29:38.452Z,104.80
2018-02-09T05:32:05.960Z,104.80
2018-02-09T05:34:33.473Z,97.73
2018-02-09T05:37:00.977Z,112.90
2018-02-09T05:39:28.480Z,104.83
2018-02-09T05:41:55.986Z,103.10
2018-02-09T05:44:23.529Z,114.17
2018-02-09T05:46:51.819Z,113.80
2018-02-09T05:49:19.368Z,111.47
2018-02-09T05:51:46.852Z,105.03
2018-02-09T05:54:14.352Z,103.30
2018-02-09T05:56:41.870Z,114.03
2018-02-09T05:59:09.376Z,112.83
2018-02-09T06:01:36.927Z,108.90
2018-02-09T06:04:04.444Z,112.87
2018-02-09T06:06:31.952Z,110.00
2018-02-09T06:08:59.472Z,124.63
2018-02-09T06:11:26.994Z,110.90
2018-02-09T06:13:55.280Z,117.07
2018-02-09T06:16:23.543Z,115.93
2018-02-09T06:18:51.090Z,117.90
2018-02-09T06:21:18.604Z,116.47
2018-02-09T06:23:46.120Z,125.47
2018-02-09T06:26:14.455Z,123.90
2018-02-09T06:28:41.948Z,113.83
2018-02-09T06:31:09.516Z,114.80
2018-02-09T06:33:37.808Z,108.40
2018-02-09T06:36:05.324Z,112.73
2018-02-09T06:38:32.840Z,115.20
2018-02-09T06:41:00.356Z,108.80
2018-02-09T06:43:27.874Z,115.47
2018-02-09T06:45:55.377Z,109.97
2018-02-09T06:48:22.904Z,103.40
2018-02-09T06:50:50.420Z,105.23
2018-02-09T06:53:17.923Z,111.10
2018-02-09T06:55:45.464Z,110.20
2018-02-09T06:58:12.977Z,109.30
2018-02-09T07:00:41.257Z,112.83
2018-02-09T07:03:09.548Z,109.70
2018-02-09T07:05:37.067Z,103.07
2018-02-09T07:08:04.572Z,104.33
2018-02-09T07:10:32.084Z,112.97
2018-02-09T07:12:59.595Z,107.00
2018-02-09T07:15:27.115Z,102.13
2018-02-09T07:17:54.644Z,99.03
2018-02-09T07:20:22.171Z,108.20
2018-02-09T07:22:49.687Z,107.53
2018-02-09T07:25:17.213Z,107.07
2018-02-09T07:27:44.802Z,107.07
2018-02-09T07:30:12.294Z,101.43
2018-02-09T07:32:39.824Z,106.23
2018-02-09T07:35:07.338Z,113.80
2018-02-09T07:37:34.850Z,104.53
2018-02-09T07:40:03.132Z,108.33
2018-02-09T07:42:30.642Z,102.90
2018-02-09T07:44:58.152Z,104.10
2018-02-09T07:47:26.452Z,103.90
2018-02-09T07:49:54.008Z,100.07
2018-02-09T07:52:21.550Z,106.67
2018-02-09T07:54:49.851Z,100.87
2018-02-09T07:57:17.370Z,112.30
2018-02-09T07:59:44.927Z,112.30
2018-02-09T08:02:12.441Z,109.60
2018-02-09T08:04:39.975Z,100.23
2018-02-09T08:07:07.594Z,103.13
2018-02-09T08:09:35.115Z,103.10
2018-02-09T08:12:02.619Z,114.43
2018-02-09T08:14:30.128Z,114.90
2018-02-09T08:16:57.674Z,107.63
2018-02-09T08:19:25.186Z,117.17
2018-02-09T08:21:52.862Z,113.27
2018-02-09T08:24:20.502Z,111.37
2018-02-09T08:26:48.014Z,115.37
2018-02-09T08:29:15.520Z,110.90
2018-02-09T08:31:43.034Z,107.43
2018-02-09T08:34:10.534Z,112.67
2018-02-09T08:36:38.036Z,113.40
2018-02-09T08:39:05.582Z,110.63
2018-02-09T08:41:33.874Z,114.93
2018-02-09T08:44:01.424Z,119.93
2018-02-09T08:46:29.744Z,116.03
2018-02-09T08:48:57.267Z,110.93
2018-02-09T08:51:24.792Z,110.80
2018-02-09T08:53:52.333Z,114.30
2018-02-09T08:56:19.863Z,105.93
2018-02-09T08:58:47.403Z,105.80
2018-02-09T09:01:15.751Z,115.23
2018-02-09T09:03:43.296Z,115.03
2018-02-09T09:06:10.842Z,121.33
2018-02-09T09:08:38.386Z,115.60
2018-02-09T09:11:05.922Z,110.83
2018-02-09T09:13:33.470Z,105.93
2018-02-09T09:16:01.012Z,94.00
2018-02-09T09:18:28.544Z,102.30
2018-02-09T09:20:56.086Z,115.03
2018-02-09T09:23:23.618Z,101.30
2018-02-09T09:25:51.530Z,100.17
2018-02-09T09:28:19.068Z,109.47
2018-02-09T09:30:46.606Z,108.20
2018-02-09T09:33:14.187Z,111.27
2018-02-09T09:35:41.724Z,107.07
2018-02-09T09:38:09.280Z,112.23
2018-02-09T09:40:36.854Z,110.17
2018-02-09T09:43:04.448Z,105.83
2018-02-09T09:45:32.022Z,104.67
2018-02-09T09:47:59.548Z,105.00
2018-02-09T09:50:27.185Z,111.87
2018-02-09T09:52:54.729Z,111.90
2018-02-09T09:55:23.026Z,113.63
2018-02-09T09:57:50.540Z,118.23
2018-02-09T10:00:20.665Z,114.40
2018-02-09T10:02:48.222Z,118.60
2018-02-09T10:05:15.786Z,127.77
2018-02-09T10:07:43.328Z,127.50
2018-02-09T10:10:11.634Z,122.37
2018-02-09T10:12:39.925Z,114.60
2018-02-09T10:15:08.250Z,127.87
2018-02-09T10:17:35.812Z,111.63
2018-02-09T10:20:03.369Z,103.90
2018-02-09T10:22:30.908Z,108.00
2018-02-09T10:24:59.566Z,108.20
2018-02-09T10:27:27.100Z,111.13
2018-02-09T10:29:55.463Z,110.63
2018-02-09T10:32:23.012Z,107.13
2018-02-09T10:34:50.592Z,114.73
2018-02-09T10:37:18.180Z,101.60
2018-02-09T10:39:46.537Z,113.87
2018-02-09T10:42:14.110Z,118.17
2018-02-09T10:44:42.455Z,103.87
2018-02-09T10:47:10.828Z,113.97
2018-02-09T10:49:38.439Z,110.53
2018-02-09T10:52:06.076Z,112.17
2018-02-09T10:54:33.631Z,101.70
2018-02-09T10:57:01.166Z,108.53
2018-02-09T10:59:28.704Z,109.53
2018-02-09T11:01:56.256Z,112.23
2018-02-09T11:04:23.784Z,112.63
2018-02-09T11:06:52.571Z,109.07
2018-02-09T11:09:25.672Z,102.13
2018-02-09T11:12:01.700Z,106.47
2018-02-09T11:14:29.218Z,103.73
2018-02-09T11:16:56.743Z,108.53
2018-02-09T11:19:25.028Z,105.93
2018-02-09T11:21:53.328Z,104.93
2018-02-09T11:24:20.829Z,91.27
2018-02-09T11:26:48.379Z,83.50
2018-02-09T11:29:15.914Z,85.87
2018-02-09T11:31:43.430Z,86.67
2018-02-09T11:34:11.736Z,83.10
2018-02-09T11:36:39.233Z,81.23
2018-02-09T11:39:06.741Z,85.63
2018-02-09T11:41:34.252Z,94.70
2018-02-09T11:44:01.758Z,81.03
2018-02-09T11:46:29.283Z,80.27
2018-02-09T11:48:56.792Z,81.23
2018-02-09T11:51:24.292Z,83.30
2018-02-09T11:53:51.796Z,77.87
2018-02-09T11:56:19.304Z,76.93
2018-02-09T11:58:46.814Z,80.57
2018-02-09T12:01:14.321Z,79.17
2018-02-09T12:03:41.856Z,77.67
2018-02-09T12:06:09.356Z,74.57
2018-02-09T12:08:36.852Z,97.53
2018-02-09T12:11:04.368Z,83.93
2018-02-09T12:13:31.861Z,83.87
2018-02-09T12:15:59.358Z,81.40
2018-02-09T12:18:26.866Z,76.43
2018-02-09T12:20:55.134Z,95.23
2018-02-09T12:23:23.412Z,82.67
2018-02-09T12:25:51.697Z,75.60
2018-02-09T12:28:19.972Z,82.73
2018-02-09T12:30:48.270Z,79.07
2018-02-09T12:33:15.788Z,80.47
2018-02-09T12:35:44.068Z,74.93
2018-02-09T12:38:11.587Z,75.63
2018-02-09T12:40:39.112Z,83.83
2018-02-09T12:43:06.621Z,77.47
2018-02-09T12:45:34.128Z,78.97
2018-02-09T12:48:01.675Z,72.90
2018-02-09T12:50:29.940Z,74.13
2018-02-09T12:52:58.224Z,74.30
2018-02-09T12:55:26.537Z,74.13
2018-02-09T12:57:54.040Z,73.43
2018-02-09T13:00:21.552Z,70.03
2018-02-09T13:02:49.067Z,78.30
2018-02-09T13:05:16.576Z,72.87
2018-02-09T13:07:44.072Z,65.37
2018-02-09T13:10:11.588Z,68.73
2018-02-09T13:12:50.832Z,67.57
2018-02-09T13:15:18.358Z,69.07
2018-02-09T13:17:45.849Z,83.97
2018-02-09T13:20:13.351Z,72.50
2018-02-09T13:22:52.693Z,70.60
2018-02-09T13:25:20.976Z,70.87
2018-02-09T13:27:49.231Z,70.80
2018-02-09T13:30:16.750Z,78.00
2018-02-09T13:32:55.956Z,70.53
2018-02-09T13:35:23.488Z,75.90
2018-02-09T13:37:51.008Z,68.73
2018-02-09T13:40:18.516Z,69.33
2018-02-09T13:42:46.088Z,74.07
2018-02-09T13:45:13.634Z,66.50
2018-02-09T13:47:41.148Z,65.80
2018-02-09T13:50:08.676Z,77.77
2018-02-09T13:52:36.183Z,66.27
2018-02-09T13:55:03.691Z,64.53
2018-02-09T13:57:31.222Z,64.70
2018-02-09T13:59:59.509Z,69.40
2018-02-09T14:02:27.771Z,65.63
2018-02-09T14:04:55.293Z,65.80
2018-02-09T14:07:22.803Z,63.80
2018-02-09T14:09:51.080Z,58.67
2018-02-09T14:12:18.587Z,64.10
2018-02-09T14:14:46.093Z,62.53
2018-02-09T14:17:14.381Z,62.33
2018-02-09T14:19:42.674Z,65.87
2018-02-09T14:22:10.954Z,61.20
2018-02-09T14:24:39.207Z,71.63
2018-02-09T14:27:07.516Z,56.70
2018-02-09T14:29:35.009Z,66.60
2018-02-09T14:32:02.527Z,62.33
2018-02-09T14:34:30.041Z,56.77
2018-02-09T14:36:57.543Z,58.93
2018-02-09T14:39:25.058Z,68.73
2018-02-09T14:41:53.356Z,68.50
2018-02-09T14:44:20.852Z,68.80
2018-02-09T14:46:48.372Z,65.50
2018-02-09T14:49:15.892Z,66.03
2018-02-09T14:51:43.391Z,68.27
2018-02-09T14:54:10.897Z,63.80
2018-02-09T14:56:39.169Z,65.70
2018-02-09T14:59:06.685Z,69.60
2018-02-09T15:01:34.189Z,67.37
2018-02-09T15:04:01.700Z,64.23
2018-02-09T15:06:29.967Z,64.67
2018-02-09T15:08:58.241Z,67.57
2018-02-09T15:11:26.617Z,70.63
2018-02-09T15:13:54.070Z,75.07
2018-02-09T15:16:21.582Z,91.10
2018-02-09T15:18:49.113Z,78.53
2018-02-09T15:21:16.634Z,73.87
2018-02-09T15:23:44.132Z,69.67
2018-02-09T15:26:11.639Z,69.33
2018-02-09T15:28:39.188Z,72.87
2018-02-09T15:31:06.681Z,65.20
2018-02-09T15:33:34.215Z,64.93
2018-02-09T15:36:01.727Z,58.73
2018-02-09T15:38:29.245Z,72.53
2018-02-09T15:40:56.813Z,68.23
2018-02-09T15:43:24.283Z,74.00
2018-02-09T15:45:52.535Z,77.97
2018-02-09T15:48:20.839Z,70.37
2018-02-09T15:50:48.343Z,67.90
2018-02-09T15:53:15.841Z,69.83
2018-02-09T15:55:43.351Z,73.20
2018-02-09T15:58:10.859Z,74.50
2018-02-09T16:00:39.131Z,72.10
2018-02-09T16:03:07.465Z,77.37
2018-02-09T16:05:34.965Z,63.43
2018-02-09T16:08:02.467Z,91.33
2018-02-09T16:10:29.996Z,70.63
2018-02-09T16:12:57.500Z,66.43
2018-02-09T16:15:25.046Z,61.40
2018-02-09T16:17:52.549Z,66.77
2018-02-09T16:20:20.080Z,138.03
2018-02-09T16:22:47.591Z,252.40
2018-02-09T16:25:15.869Z,190.00
2018-02-09T16:27:43.371Z,146.87
2018-02-09T16:30:10.882Z,160.43
2018-02-09T16:32:39.314Z,99.50
2018-02-09T16:35:06.840Z,89.33
2018-02-09T16:37:34.356Z,80.73
2018-02-09T16:40:01.872Z,103.83
2018-02-09T16:42:29.387Z,77.40
2018-02-09T16:44:57.665Z,126.90
2018-02-09T16:47:25.962Z,95.40
2018-02-09T16:49:53.471Z,84.67
2018-02-09T16:52:20.967Z,71.50
2018-02-09T16:54:49.278Z,91.57
2018-02-09T16:57:16.795Z,128.20
2018-02-09T16:59:45.119Z,75.33
2018-02-09T17:02:12.608Z,76.17
2018-02-09T17:04:40.110Z,74.03
2018-02-09T17:07:07.637Z,87.20
2018-02-09T17:09:35.171Z,78.10
2018-02-09T17:12:02.683Z,78.40
2018-02-09T17:14:30.219Z,73.00
2018-02-09T17:16:57.733Z,78.27
2018-02-09T17:19:25.254Z,75.47
2018-02-09T17:21:52.760Z,72.17
2018-02-09T17:24:20.294Z,79.20
2018-02-09T17:26:47.807Z,70.47
2018-02-09T17:29:15.339Z,64.33
2018-02-09T17:31:42.855Z,66.73
2018-02-09T17:34:10.371Z,68.00
2018-02-09T17:36:37.889Z,73.73
2018-02-09T17:39:05.421Z,70.53
2018-02-09T17:41:33.718Z,68.53
2018-02-09T17:44:01.232Z,79.47
2018-02-09T17:46:28.753Z,76.47
2018-02-09T17:48:56.295Z,81.33
2018-02-09T17:51:23.851Z,74.60
2018-02-09T17:53:51.384Z,79.40
2018-02-09T17:56:19.666Z,71.47
2018-02-09T17:58:47.971Z,81.03
2018-02-09T18:01:16.293Z,81.50
2018-02-09T18:03:43.791Z,76.33
2018-02-09T18:06:11.303Z,82.83
2018-02-09T18:08:38.831Z,77.67
2018-02-09T18:11:06.333Z,81.77
2018-02-09T18:13:33.861Z,82.70
2018-02-09T18:16:01.388Z,79.63
2018-02-09T18:18:28.915Z,73.70
2018-02-09T18:20:56.433Z,80.53
2018-02-09T18:23:23.983Z,81.40
2018-02-09T18:25:51.500Z,82.40
2018-02-09T18:28:19.771Z,83.47
2018-02-09T18:30:47.293Z,80.93
2018-02-09T18:33:14.817Z,70.73
2018-02-09T18:35:42.339Z,77.23
2018-02-09T18:38:10.643Z,75.83
2018-02-09T18:40:38.923Z,76.53
2018-02-09T18:43:06.448Z,75.30
2018-02-09T18:45:33.971Z,77.30
2018-02-09T18:48:01.517Z,80.70
2018-02-09T18:50:29.033Z,82.27
2018-02-09T18:52:57.323Z,79.43
2018-02-09T18:55:25.602Z,79.10
2018-02-09T18:57:53.115Z,86.93
2018-02-09T19:00:20.649Z,78.77
2018-02-09T19:02:48.186Z,80.13
2018-02-09T19:05:15.698Z,74.50
2018-02-09T19:07:43.215Z,71.73
2018-02-09T19:10:10.716Z,77.77
2018-02-09T19:12:38.233Z,78.87
2018-02-09T19:15:05.795Z,69.63
2018-02-09T19:17:33.313Z,74.77
2018-02-09T19:20:00.823Z,73.47
2018-02-09T19:22:28.341Z,74.63
2018-02-09T19:24:56.623Z,72.30
2018-02-09T19:27:24.913Z,76.03
2018-02-09T19:29:52.443Z,77.40
2018-02-09T19:32:19.966Z,74.63
2018-02-09T19:34:47.478Z,77.77
2018-02-09T19:37:15.775Z,74.37
2018-02-09T19:39:43.292Z,79.43
2018-02-09T19:42:10.791Z,72.97
2018-02-09T19:44:38.313Z,73.67
2018-02-09T19:47:05.833Z,74.67
2018-02-09T19:49:33.342Z,74.17
2018-02-09T19:52:00.856Z,75.33
2018-02-09T19:54:28.369Z,74.73
2018-02-09T19:56:55.901Z,79.93
2018-02-09T19:59:24.174Z,75.80
2018-02-09T20:01:51.687Z,74.07
2018-02-09T20:04:19.203Z,79.03
2018-02-09T20:06:47.500Z,74.40
2018-02-09T20:09:15.020Z,73.67
2018-02-09T20:11:42.534Z,72.93
2018-02-09T20:14:10.053Z,75.97
2018-02-09T20:16:37.569Z,73.07
2018-02-09T20:19:05.100Z,80.13
2018-02-09T20:21:32.621Z,70.53
2018-02-09T20:24:00.128Z,78.30
2018-02-09T20:26:27.645Z,80.07
2018-02-09T20:28:55.163Z,81.30
2018-02-09T20:31:22.675Z,82.90
2018-02-09T20:33:51.107Z,73.37
2018-02-09T20:36:18.633Z,81.33
2018-02-09T20:38:46.167Z,79.27
2018-02-09T20:41:14.485Z,83.90
2018-02-09T20:43:42.069Z,74.80
2018-02-09T20:46:10.403Z,78.87
2018-02-09T20:48:37.950Z,77.10
2018-02-09T20:51:06.252Z,79.67
2018-02-09T20:53:33.777Z,75.93
2018-02-09T20:56:02.126Z,79.03
2018-02-09T20:58:29.665Z,79.17
2018-02-09T21:00:57.200Z,72.63
2018-02-09T21:03:24.735Z,76.50
2018-02-09T21:05:53.089Z,76.80
2018-02-09T21:08:20.627Z,82.17
2018-02-09T21:10:48.150Z,77.23
2018-02-09T21:13:15.750Z,79.27
2018-02-09T21:15:43.275Z,74.43
2018-02-09T21:18:10.825Z,77.50
2018-02-09T21:20:38.373Z,79.90
2018-02-09T21:23:05.928Z,80.83
2018-02-09T21:25:34.253Z,83.73
2018-02-09T21:28:01.819Z,83.20
2018-02-09T21:30:29.346Z,81.03
2018-02-09T21:32:56.919Z,84.30
2018-02-09T21:35:25.229Z,80.03
2018-02-09T21:37:52.758Z,84.97
2018-02-09T21:40:20.321Z,90.53
2018-02-09T21:42:47.859Z,90.17
2018-02-09T21:45:15.401Z,87.03
2018-02-09T21:47:42.953Z,87.90
2018-02-09T21:50:11.254Z,91.03
2018-02-09T21:52:38.802Z,84.73
2018-02-09T21:55:06.391Z,88.57
2018-02-09T21:57:33.966Z,83.57
2018-02-09T22:00:01.503Z,84.57
2018-02-09T22:02:29.055Z,79.10
2018-02-09T22:04:56.648Z,85.13
2018-02-09T22:07:24.207Z,75.73
2018-02-09T22:09:51.745Z,89.40
2018-02-09T22:12:19.305Z,82.13
2018-02-09T22:14:46.871Z,78.43
2018-02-09T22:17:15.172Z,72.10
2018-02-09T22:19:42.712Z,85.63
2018-02-09T22:22:10.239Z,85.23
2018-02-09T22:24:38.537Z,82.40
2018-02-09T22:27:06.175Z,82.03
2018-02-09T22:29:33.699Z,80.07
2018-02-09T22:32:01.227Z,78.30
2018-02-09T22:34:28.761Z,86.10
2018-02-09T22:36:56.287Z,82.30
2018-02-09T22:39:23.801Z,80.07
2018-02-09T22:41:52.087Z,80.53
2018-02-09T22:44:19.617Z,76.97
2018-02-09T22:46:47.141Z,78.97
2018-02-09T22:49:14.695Z,84.27
2018-02-09T22:51:42.235Z,78.20
2018-02-09T22:54:09.763Z,71.23
2018-02-09T22:56:37.309Z,73.43
2018-02-09T22:59:04.847Z,72.37
2018-02-09T23:01:33.145Z,72.53
2018-02-09T23:04:00.724Z,75.87
2018-02-09T23:06:28.246Z,76.07
2018-02-09T23:08:56.568Z,75.63
2018-02-09T23:11:24.114Z,73.10
2018-02-09T23:13:51.682Z,77.70
2018-02-09T23:16:19.211Z,74.47
2018-02-09T23:18:46.747Z,72.30
2018-02-09T23:21:14.297Z,74.93
2018-02-09T23:23:41.799Z,67.47
2018-02-09T23:26:09.338Z,71.30
2018-02-09T23:28:36.882Z,74.53
2018-02-09T23:31:04.426Z,75.23
2018-02-09T23:33:32.014Z,75.43
2018-02-09T23:36:00.327Z,71.90
2018-02-09T23:38:28.630Z,75.23
2018-02-09T23:40:56.191Z,71.70
2018-02-09T23:43:23.713Z,72.53
2018-02-09T23:45:51.262Z,71.63
2018-02-09T23:48:18.803Z,74.50
2018-02-09T23:50:47.092Z,73.50
2018-02-09T23:53:15.391Z,73.63
2018-02-09T23:55:42.923Z,76.00
2018-02-09T23:58:11.214Z,79.10
